Decoded Metar for KOQT (OAK RIDGE in TN, USA) (IATA:OQT) | Meteo·Mobile Aviation Weather
aviador You're here:

KOQT Decoded Metar

OAK RIDGE in TN, USA
Report Time2018-11-19 00:53:00
UTC Time2018-11-19 00:58:36
Flight Rules vfr VFR
WindCalm
Visibility9999 m
Phenomena:N/A
Clouds:N/A
Expected CloudBase > 400 ft AGL from Temp-Dew spread
CeilingNone
Temp07°C (ISA -6)
Dew Point06°C (93% RH)
AAT6.1°C
QNH1022 hPa
Density Alt-10 ft
Elevation909 ft
Report Wrong Elevation
Raw Report
METAR KOQT 190053Z AUTO 00000KT 10SM CLR 07/06 A3019 RMK AO2 SLP232
T00720061

Extra information for KOQT:More info

Metar Taf Metar & Taf Last 4 Metars F.Rules Stats Wind Profile Meteogram Temp Stats Airport Information Weather charts Add Link Nearby VenuesMetar ALERT Operation Metar Decoded Social comments

AIRNAV info for KOQT